Time;durP1;ratioP1;P1;durP2;ratioP2;P2;SDS_P1;SDS_P2;PMS_P1;PMS_P2;Temp;Humidity;BMP_temperature;BMP_pressure;BME280_temperature;BME280_humidity;BME280_pressure;Samples;Min_cycle;Max_cycle;Signal;HPM_P1;HPM_P2
2021/05/22 00:00:07;;;;;;;2.05;0.90;;;;;;;;;;4962808;28;20026;-87
2021/05/22 00:02:52;;;;;;;0.98;0.90;;;;;;;;;;4958212;28;20113;-86
2021/05/22 00:05:38;;;;;;;1.52;1.05;;;;;;;;;;4947486;28;20026;-87
2021/05/22 00:08:24;;;;;;;3.25;0.90;;;;;;;;;;4940418;28;20109;-87
2021/05/22 00:11:09;;;;;;;2.78;0.98;;;;;;;;;;4959528;28;20046;-87
2021/05/22 00:13:54;;;;;;;1.05;0.80;;;;;;;;;;4962249;28;20098;-87
2021/05/22 00:16:39;;;;;;;1.05;0.80;;;;;;;;;;4933807;28;20063;-88
2021/05/22 00:41:09;;;;;;;1.85;1.00;;;;;;;;;;6165540;22;757791;-89
2021/05/22 00:43:57;;;;;;;2.45;1.13;;;;;;;;;;6189842;23;20009;-87
2021/05/22 00:46:43;;;;;;;2.05;0.88;;;;;;;;;;6169242;23;20301;-88
2021/05/22 00:49:28;;;;;;;1.40;0.75;;;;;;;;;;6189510;23;20341;-88
2021/05/22 00:52:13;;;;;;;1.95;1.02;;;;;;;;;;6189327;23;20047;-89
2021/05/22 00:54:59;;;;;;;1.95;0.80;;;;;;;;;;6190142;23;20005;-88
2021/05/22 00:57:44;;;;;;;1.60;0.80;;;;;;;;;;6188749;23;20001;-88
2021/05/22 01:00:36;;;;;;;2.03;0.77;;;;;;;;;;6190358;23;20332;-89
2021/05/22 01:03:29;;;;;;;3.67;0.90;;;;;;;;;;6189805;23;20092;-88
2021/05/22 01:06:43;;;;;;;;;;;;;;;;;;;;;
2021/05/22 01:18:48;;;;;;;2.25;1.00;;;;;;;;;;6191740;23;20095;-87
2021/05/22 01:21:40;;;;;;;2.03;0.70;;;;;;;;;;6190532;23;20325;-86
2021/05/22 01:24:26;;;;;;;1.20;0.75;;;;;;;;;;6189280;23;20053;-87
2021/05/22 01:27:11;;;;;;;1.10;0.77;;;;;;;;;;6190451;23;20009;-87
2021/05/22 01:30:26;;;;;;;1.42;0.77;;;;;;;;;;6191492;23;20083;-89
2021/05/22 01:33:38;;;;;;;3.28;1.15;;;;;;;;;;6191339;23;20079;-89
2021/05/22 01:49:43;;;;;;;5.70;2.63;;;;;;;;;;5950190;24;20051;-88
2021/05/22 01:52:29;;;;;;;1.33;0.77;;;;;;;;;;5930843;24;20009;-86
2021/05/22 01:55:17;;;;;;;3.70;0.90;;;;;;;;;;5930392;24;20001;-87
2021/05/22 01:58:03;;;;;;;1.85;0.70;;;;;;;;;;6154188;23;20357;-86
2021/05/22 02:00:49;;;;;;;2.30;1.10;;;;;;;;;;6160798;23;20005;-87
2021/05/22 02:03:57;;;;;;;2.15;0.80;;;;;;;;;;6183584;23;20357;-87
2021/05/22 02:06:45;;;;;;;2.33;0.95;;;;;;;;;;6183285;23;19993;-87
2021/05/22 02:09:32;;;;;;;3.22;1.00;;;;;;;;;;6182761;23;20706;-87
2021/05/22 02:12:28;;;;;;;4.30;1.20;;;;;;;;;;6183412;23;19993;-87
2021/05/22 02:15:14;;;;;;;5.07;1.50;;;;;;;;;;6181930;23;20001;-88
2021/05/22 02:18:01;;;;;;;3.10;1.42;;;;;;;;;;6173223;23;20017;-89
2021/05/22 02:20:51;;;;;;;3.88;1.42;;;;;;;;;;6182907;23;20497;-88
2021/05/22 02:23:48;;;;;;;2.70;1.20;;;;;;;;;;6185414;23;20489;-88
2021/05/22 02:26:35;;;;;;;2.63;1.00;;;;;;;;;;6179317;23;20123;-87
2021/05/22 02:29:23;;;;;;;2.70;1.10;;;;;;;;;;6189101;23;20009;-88
2021/05/22 02:32:35;;;;;;;2.60;1.27;;;;;;;;;;6162725;23;20001;-89
2021/05/22 02:35:46;;;;;;;;;;;;;;;;;;;;;
2021/05/22 02:39:14;;;;;;;;;;;;;;;;;;;;;
2021/05/22 02:42:01;;;;;;;1.90;0.88;;;;;;;;;;6143166;23;20031;-87
2021/05/22 02:44:58;;;;;;;2.58;0.95;;;;;;;;;;6187698;23;19997;-89
2021/05/22 02:47:46;;;;;;;2.97;0.88;;;;;;;;;;6187013;23;19997;-86
2021/05/22 02:50:35;;;;;;;2.10;0.85;;;;;;;;;;6188709;23;20009;-87
2021/05/22 02:57:23;;;;;;;4.00;1.10;;;;;;;;;;6092239;23;20442;-90
2021/05/22 03:00:11;;;;;;;2.08;0.98;;;;;;;;;;6051237;23;19998;-87
2021/05/22 03:02:56;;;;;;;4.05;1.17;;;;;;;;;;6182116;23;19997;-86
2021/05/22 03:05:42;;;;;;;5.03;1.00;;;;;;;;;;6182082;23;20055;-85
2021/05/22 03:08:40;;;;;;;1.50;0.90;;;;;;;;;;6181303;23;20029;-87
2021/05/22 03:11:28;;;;;;;2.67;1.02;;;;;;;;;;6182026;23;20156;-85
2021/05/22 03:14:13;;;;;;;6.07;1.05;;;;;;;;;;6180020;23;19997;-85
2021/05/22 03:17:01;;;;;;;3.78;1.45;;;;;;;;;;6180330;23;20005;-86
2021/05/22 03:19:46;;;;;;;1.92;1.20;;;;;;;;;;6180720;23;20036;-84
2021/05/22 03:22:32;;;;;;;4.50;1.20;;;;;;;;;;6180455;23;20381;-85
2021/05/22 03:25:18;;;;;;;5.70;2.22;;;;;;;;;;6183038;23;20004;-86
2021/05/22 03:28:03;;;;;;;1.95;1.10;;;;;;;;;;6182433;23;20001;-87
2021/05/22 03:30:48;;;;;;;3.35;1.00;;;;;;;;;;6181648;23;20468;-85
2021/05/22 03:33:34;;;;;;;2.85;1.10;;;;;;;;;;6180309;23;20004;-84
2021/05/22 03:36:20;;;;;;;3.25;1.10;;;;;;;;;;6180959;23;20064;-86
2021/05/22 03:39:05;;;;;;;8.82;1.48;;;;;;;;;;6159649;23;20003;-85
2021/05/22 03:41:50;;;;;;;2.75;1.10;;;;;;;;;;6181938;23;20001;-85
2021/05/22 03:44:36;;;;;;;4.57;1.10;;;;;;;;;;6181020;23;19997;-85
2021/05/22 03:47:21;;;;;;;4.95;1.45;;;;;;;;;;6161021;23;20076;-85
2021/05/22 03:50:07;;;;;;;3.22;0.95;;;;;;;;;;6180060;23;20028;-85
2021/05/22 03:52:52;;;;;;;3.25;1.00;;;;;;;;;;6181296;23;20064;-85
2021/05/22 03:55:37;;;;;;;2.63;1.10;;;;;;;;;;6161117;23;19993;-85
2021/05/22 03:58:23;;;;;;;4.18;1.30;;;;;;;;;;6181111;23;20004;-86
2021/05/22 04:01:08;;;;;;;3.83;1.77;;;;;;;;;;6180688;23;20579;-86
2021/05/22 04:03:53;;;;;;;4.68;1.20;;;;;;;;;;6159089;23;20594;-86
2021/05/22 04:06:39;;;;;;;5.28;1.48;;;;;;;;;;6180545;23;20115;-87
2021/05/22 04:09:24;;;;;;;3.20;1.20;;;;;;;;;;6179228;23;20247;-86
2021/05/22 04:12:09;;;;;;;3.50;1.30;;;;;;;;;;6159423;23;20078;-85
2021/05/22 04:14:54;;;;;;;3.58;1.30;;;;;;;;;;6158173;23;20001;-85
2021/05/22 04:17:40;;;;;;;5.25;1.55;;;;;;;;;;6180275;23;20430;-86
2021/05/22 04:20:25;;;;;;;2.88;1.15;;;;;;;;;;6179391;23;20001;-87
2021/05/22 04:23:18;;;;;;;2.78;1.10;;;;;;;;;;6180635;23;20005;-87
2021/05/22 04:26:03;;;;;;;2.58;1.15;;;;;;;;;;6180042;23;20001;-87
2021/05/22 04:28:49;;;;;;;4.20;1.00;;;;;;;;;;6180087;23;20001;-85
2021/05/22 04:31:34;;;;;;;1.85;0.80;;;;;;;;;;6158008;23;19993;-85
2021/05/22 04:34:19;;;;;;;3.03;1.05;;;;;;;;;;6180226;23;20080;-84
2021/05/22 04:37:04;;;;;;;3.60;1.40;;;;;;;;;;6177834;23;20023;-84
2021/05/22 04:39:50;;;;;;;4.75;1.20;;;;;;;;;;6179967;23;20004;-86
2021/05/22 04:42:36;;;;;;;4.75;1.10;;;;;;;;;;6180408;23;20001;-85
2021/05/22 04:45:21;;;;;;;2.70;1.15;;;;;;;;;;6179072;23;20001;-85
2021/05/22 04:48:07;;;;;;;2.60;1.05;;;;;;;;;;6180775;23;20001;-85
2021/05/22 04:50:54;;;;;;;3.10;1.58;;;;;;;;;;6178408;23;20087;-84
2021/05/22 04:53:43;;;;;;;3.22;1.30;;;;;;;;;;6181200;23;20023;-85
2021/05/22 04:56:28;;;;;;;1.83;0.90;;;;;;;;;;6181902;23;20009;-84
2021/05/22 04:59:13;;;;;;;4.53;1.40;;;;;;;;;;6161406;23;19997;-85
2021/05/22 05:01:58;;;;;;;3.38;1.00;;;;;;;;;;6179664;23;20507;-86
2021/05/22 05:04:44;;;;;;;3.30;1.17;;;;;;;;;;6181268;23;19993;-85
2021/05/22 05:07:32;;;;;;;2.78;1.13;;;;;;;;;;6181089;23;20032;-86
2021/05/22 05:10:17;;;;;;;6.60;1.40;;;;;;;;;;6181689;23;20001;-86
2021/05/22 05:13:02;;;;;;;2.28;0.95;;;;;;;;;;6180504;23;19997;-84
2021/05/22 05:15:48;;;;;;;2.17;1.10;;;;;;;;;;6182059;23;20350;-86
2021/05/22 05:18:33;;;;;;;6.63;1.45;;;;;;;;;;6182469;23;20017;-86
2021/05/22 05:21:18;;;;;;;1.40;1.02;;;;;;;;;;6184167;23;20008;-86
2021/05/22 05:24:04;;;;;;;3.45;1.10;;;;;;;;;;6162659;23;20020;-86
2021/05/22 05:26:49;;;;;;;5.05;1.10;;;;;;;;;;6183324;23;20032;-86
2021/05/22 05:29:39;;;;;;;2.55;1.10;;;;;;;;;;6183851;23;20029;-86
2021/05/22 05:32:24;;;;;;;1.45;1.10;;;;;;;;;;6183084;23;20000;-86
2021/05/22 05:35:10;;;;;;;2.25;1.15;;;;;;;;;;6182620;23;20437;-86
2021/05/22 05:37:58;;;;;;;5.28;1.58;;;;;;;;;;6182420;23;19997;-86
2021/05/22 05:40:43;;;;;;;2.28;1.00;;;;;;;;;;6162856;23;20084;-86
2021/05/22 05:43:31;;;;;;;2.35;1.10;;;;;;;;;;6183034;23;20005;-87
2021/05/22 05:46:16;;;;;;;2.13;1.08;;;;;;;;;;6183898;23;20392;-85
2021/05/22 05:49:02;;;;;;;2.38;1.10;;;;;;;;;;6182370;23;20008;-85
2021/05/22 05:51:47;;;;;;;2.60;1.38;;;;;;;;;;6162260;23;20008;-85
2021/05/22 05:54:40;;;;;;;2.45;0.90;;;;;;;;;;6152751;23;20004;-87
2021/05/22 05:57:25;;;;;;;1.58;0.95;;;;;;;;;;6154689;23;20004;-86
2021/05/22 06:00:11;;;;;;;3.70;1.85;;;;;;;;;;6156695;23;20001;-86
2021/05/22 06:02:56;;;;;;;2.13;1.20;;;;;;;;;;6178607;23;20001;-87
2021/05/22 06:05:42;;;;;;;2.92;0.98;;;;;;;;;;6153539;23;20008;-87
2021/05/22 06:08:32;;;;;;;3.97;1.15;;;;;;;;;;6153694;23;19998;-88
2021/05/22 06:11:20;;;;;;;3.13;1.67;;;;;;;;;;6154624;23;20001;-88
2021/05/22 06:14:16;;;;;;;3.65;1.80;;;;;;;;;;6153507;23;20049;-87
2021/05/22 06:17:02;;;;;;;5.28;2.05;;;;;;;;;;6069379;23;20003;-90
2021/05/22 06:19:50;;;;;;;3.80;1.52;;;;;;;;;;6152292;23;20022;-90
2021/05/22 06:22:35;;;;;;;2.70;1.33;;;;;;;;;;6155349;23;20051;-88
2021/05/22 06:25:20;;;;;;;3.05;1.42;;;;;;;;;;6151773;23;20001;-87
2021/05/22 06:28:06;;;;;;;10.00;1.60;;;;;;;;;;6152483;23;19998;-87
2021/05/22 06:30:51;;;;;;;3.38;1.40;;;;;;;;;;6150426;23;20013;-86
2021/05/22 06:33:37;;;;;;;3.25;1.30;;;;;;;;;;6151370;23;20032;-83
2021/05/22 06:36:23;;;;;;;3.50;1.25;;;;;;;;;;6148864;23;20005;-87
2021/05/22 06:39:25;;;;;;;7.43;2.20;;;;;;;;;;6172633;23;20001;-87
2021/05/22 06:42:10;;;;;;;5.07;2.00;;;;;;;;;;6150087;23;20005;-82
2021/05/22 06:45:15;;;;;;;6.53;1.98;;;;;;;;;;6149469;23;19994;-83
2021/05/22 06:48:01;;;;;;;8.27;2.15;;;;;;;;;;6150668;23;20101;-82
2021/05/22 06:50:46;;;;;;;6.65;1.80;;;;;;;;;;6149210;23;20192;-83
2021/05/22 06:53:31;;;;;;;8.70;2.38;;;;;;;;;;6150598;23;20028;-84
2021/05/22 06:56:16;;;;;;;4.28;1.58;;;;;;;;;;6148812;23;20028;-83
2021/05/22 06:59:02;;;;;;;3.50;1.50;;;;;;;;;;6150904;23;20068;-85
2021/05/22 07:01:47;;;;;;;4.05;1.70;;;;;;;;;;6169859;23;20025;-86
2021/05/22 07:04:33;;;;;;;6.85;1.60;;;;;;;;;;6150494;23;20378;-83
2021/05/22 07:07:18;;;;;;;5.47;1.77;;;;;;;;;;6148253;23;20434;-84
2021/05/22 07:10:03;;;;;;;4.63;1.88;;;;;;;;;;6150232;23;20001;-85
2021/05/22 07:12:49;;;;;;;5.55;1.75;;;;;;;;;;6149964;23;20078;-86
2021/05/22 07:15:34;;;;;;;7.28;1.92;;;;;;;;;;6173449;23;20002;-87
2021/05/22 07:18:19;;;;;;;6.50;1.88;;;;;;;;;;6149368;23;20017;-86
2021/05/22 07:21:05;;;;;;;5.70;2.22;;;;;;;;;;6149783;23;20000;-85
2021/05/22 07:23:50;;;;;;;6.63;2.05;;;;;;;;;;6149724;23;20017;-84
2021/05/22 07:26:36;;;;;;;6.35;2.33;;;;;;;;;;6145960;23;20056;-83
2021/05/22 07:29:21;;;;;;;6.65;1.58;;;;;;;;;;6149132;23;20002;-84
2021/05/22 07:32:06;;;;;;;12.38;6.03;;;;;;;;;;6148438;23;20005;-84
2021/05/22 07:34:51;;;;;;;8.95;2.67;;;;;;;;;;6148677;23;20002;-83
2021/05/22 07:37:37;;;;;;;3.70;1.48;;;;;;;;;;6148122;23;19998;-80
2021/05/22 07:40:22;;;;;;;6.50;2.22;;;;;;;;;;6149390;23;20052;-82
2021/05/22 07:43:07;;;;;;;6.80;1.50;;;;;;;;;;6147878;23;20102;-81
2021/05/22 07:45:56;;;;;;;3.38;1.33;;;;;;;;;;6152680;23;19997;-81
2021/05/22 07:48:42;;;;;;;7.00;1.88;;;;;;;;;;6148052;23;20006;-81
2021/05/22 07:51:27;;;;;;;7.18;1.50;;;;;;;;;;6148976;23;19998;-82
2021/05/22 07:54:13;;;;;;;6.25;1.95;;;;;;;;;;6147594;23;19993;-82
2021/05/22 07:56:58;;;;;;;6.25;2.30;;;;;;;;;;6149016;23;20001;-80
2021/05/22 07:59:43;;;;;;;4.65;1.48;;;;;;;;;;6148406;23;20040;-81
2021/05/22 08:02:29;;;;;;;4.45;1.63;;;;;;;;;;6149303;23;20009;-83
2021/05/22 08:05:14;;;;;;;5.35;1.65;;;;;;;;;;6148845;23;19998;-82
2021/05/22 08:07:59;;;;;;;4.55;1.15;;;;;;;;;;6148518;23;20002;-81
2021/05/22 08:10:44;;;;;;;3.42;1.50;;;;;;;;;;6150386;23;20049;-84
2021/05/22 08:13:31;;;;;;;6.50;2.20;;;;;;;;;;6148935;23;20025;-85
2021/05/22 08:16:17;;;;;;;6.18;1.88;;;;;;;;;;6149039;23;19998;-83
2021/05/22 08:19:02;;;;;;;6.85;1.77;;;;;;;;;;6149937;23;20025;-83
2021/05/22 08:21:47;;;;;;;7.22;1.85;;;;;;;;;;6150307;23;20005;-82
2021/05/22 08:24:32;;;;;;;5.68;1.60;;;;;;;;;;6148478;23;20662;-84
2021/05/22 08:27:20;;;;;;;5.82;1.85;;;;;;;;;;6152277;23;20337;-89
2021/05/22 08:30:05;;;;;;;2.58;1.60;;;;;;;;;;6151500;23;19997;-85
2021/05/22 08:32:51;;;;;;;2.75;1.30;;;;;;;;;;6150951;23;19998;-86
2021/05/22 08:35:36;;;;;;;5.93;2.22;;;;;;;;;;6156065;23;20295;-81
2021/05/22 08:38:21;;;;;;;5.10;1.80;;;;;;;;;;6147462;23;20064;-88
2021/05/22 08:41:07;;;;;;;4.25;1.50;;;;;;;;;;6170567;23;19993;-87
2021/05/22 08:43:53;;;;;;;8.35;1.80;;;;;;;;;;6152061;23;19993;-79
2021/05/22 08:46:38;;;;;;;4.35;1.63;;;;;;;;;;6142306;23;19998;-82
2021/05/22 08:49:23;;;;;;;7.95;3.10;;;;;;;;;;6150012;23;19998;-84
2021/05/22 08:52:16;;;;;;;5.53;1.70;;;;;;;;;;6152359;23;20040;-84
2021/05/22 08:55:02;;;;;;;3.95;1.55;;;;;;;;;;6151272;23;20025;-84
2021/05/22 08:57:48;;;;;;;4.88;1.60;;;;;;;;;;6153027;23;20021;-84
2021/05/22 09:00:39;;;;;;;5.60;1.60;;;;;;;;;;6172561;23;20052;-84
2021/05/22 09:03:24;;;;;;;6.13;2.95;;;;;;;;;;6152377;23;19997;-85
2021/05/22 09:06:09;;;;;;;4.55;2.35;;;;;;;;;;6151718;23;20080;-85
2021/05/22 09:08:58;;;;;;;5.53;1.30;;;;;;;;;;6151891;23;20033;-85
2021/05/22 09:11:50;;;;;;;4.90;1.42;;;;;;;;;;6172339;23;20000;-85
2021/05/22 09:14:39;;;;;;;4.68;2.72;;;;;;;;;;6152803;23;19998;-85
2021/05/22 09:17:24;;;;;;;;;;;;;;;;;;6152157;23;19994;-84
2021/05/22 09:20:11;;;;;;;4.88;1.67;;;;;;;;;;6101683;23;19913;-84
2021/05/22 09:23:00;;;;;;;4.45;1.42;;;;;;;;;;6101338;23;20030;-85
2021/05/22 09:25:45;;;;;;;;;;;;;;;;;;6103230;23;20009;-83
2021/05/22 09:28:35;;;;;;;4.22;1.60;;;;;;;;;;6100854;23;19901;-83
2021/05/22 09:31:20;;;;;;;;;;;;;;;;;;6101088;23;20128;-84
2021/05/22 09:34:05;;;;;;;4.72;1.67;;;;;;;;;;6102407;23;19904;-84
2021/05/22 09:36:51;;;;;;;6.15;1.20;;;;;;;;;;6102694;23;20045;-81
2021/05/22 09:39:43;;;;;;;4.38;1.42;;;;;;;;;;6103373;23;20025;-86
2021/05/22 09:42:32;;;;;;;5.70;1.17;;;;;;;;;;6101226;23;20319;-83
2021/05/22 09:45:21;;;;;;;7.05;1.23;;;;;;;;;;6101375;23;20057;-83
2021/05/22 09:48:08;;;;;;;;;;;;;;;;;;6101236;23;20009;-83
2021/05/22 09:50:54;;;;;;;2.78;1.33;;;;;;;;;;6121674;23;20340;-84
2021/05/22 09:53:39;;;;;;;8.02;4.35;;;;;;;;;;6099722;23;20006;-84
2021/05/22 09:56:25;;;;;;;4.60;1.77;;;;;;;;;;6104096;23;20026;-85
2021/05/22 09:59:12;;;;;;;7.28;1.65;;;;;;;;;;6081045;23;20010;-84
2021/05/22 10:02:01;;;;;;;2.67;1.20;;;;;;;;;;6081880;23;20330;-84
2021/05/22 10:04:50;;;;;;;3.92;1.25;;;;;;;;;;6100333;23;20001;-83
2021/05/22 10:07:35;;;;;;;9.32;1.35;;;;;;;;;;6102271;23;20457;-83
2021/05/22 10:10:21;;;;;;;3.58;1.33;;;;;;;;;;6101297;23;20085;-85
2021/05/22 10:13:07;;;;;;;3.10;1.10;;;;;;;;;;6100498;23;19994;-84
2021/05/22 10:15:56;;;;;;;3.58;1.38;;;;;;;;;;6080667;23;19994;-84
2021/05/22 10:18:42;;;;;;;2.53;1.10;;;;;;;;;;6117542;23;20051;-84
2021/05/22 10:21:28;;;;;;;4.82;2.25;;;;;;;;;;6150440;23;20000;-84
2021/05/22 10:24:14;;;;;;;4.28;1.20;;;;;;;;;;6149059;23;19994;-85
2021/05/22 10:27:00;;;;;;;4.15;1.48;;;;;;;;;;6151140;23;19997;-85
2021/05/22 10:29:45;;;;;;;5.93;2.15;;;;;;;;;;6170018;23;20002;-85
2021/05/22 10:32:32;;;;;;;9.90;4.82;;;;;;;;;;6150632;23;20105;-85
2021/05/22 10:35:27;;;;;;;2.72;1.20;;;;;;;;;;6170311;23;20314;-86
2021/05/22 10:38:31;;;;;;;2.92;1.30;;;;;;;;;;6150673;23;20000;-84
2021/05/22 10:41:39;;;;;;;3.78;1.40;;;;;;;;;;6150748;23;20033;-85
2021/05/22 10:44:33;;;;;;;5.65;1.92;;;;;;;;;;6149603;23;20036;-85
2021/05/22 10:47:19;;;;;;;4.45;1.15;;;;;;;;;;6150080;23;20010;-85
2021/05/22 10:50:05;;;;;;;3.42;1.05;;;;;;;;;;6148434;23;20007;-84
2021/05/22 10:53:10;;;;;;;2.47;1.23;;;;;;;;;;6149484;23;20037;-84
2021/05/22 10:56:04;;;;;;;4.97;1.50;;;;;;;;;;6148596;23;20456;-85
2021/05/22 10:58:59;;;;;;;3.40;0.90;;;;;;;;;;6149821;23;19998;-86
2021/05/22 11:01:45;;;;;;;4.07;1.38;;;;;;;;;;6169716;23;20333;-85
2021/05/22 11:04:32;;;;;;;6.75;2.00;;;;;;;;;;6150109;23;19994;-84
2021/05/22 11:07:17;;;;;;;19.95;13.60;;;;;;;;;;6154588;23;20426;-85
2021/05/22 11:10:03;;;;;;;8.30;3.67;;;;;;;;;;6150306;23;20008;-85
2021/05/22 11:12:49;;;;;;;3.17;1.27;;;;;;;;;;6171825;23;20266;-85
2021/05/22 11:15:43;;;;;;;2.60;1.23;;;;;;;;;;6171094;23;20004;-86
2021/05/22 11:18:34;;;;;;;3.83;1.27;;;;;;;;;;6151216;23;20044;-85
2021/05/22 11:21:24;;;;;;;4.40;1.60;;;;;;;;;;6170182;23;20080;-85
2021/05/22 11:24:10;;;;;;;5.50;1.45;;;;;;;;;;6149935;23;19997;-86
2021/05/22 11:26:57;;;;;;;3.30;1.30;;;;;;;;;;6149462;23;20330;-86
2021/05/22 11:29:50;;;;;;;5.88;1.90;;;;;;;;;;6150284;23;20144;-85
2021/05/22 11:32:42;;;;;;;2.55;1.30;;;;;;;;;;6147835;23;20510;-85
2021/05/22 11:35:27;;;;;;;5.03;1.75;;;;;;;;;;6150235;23;20001;-85
2021/05/22 11:38:13;;;;;;;1.98;1.20;;;;;;;;;;6149355;23;20366;-86
2021/05/22 11:41:04;;;;;;;7.03;1.40;;;;;;;;;;6151435;23;19994;-84
2021/05/22 11:43:49;;;;;;;2.78;1.27;;;;;;;;;;6149800;23;20437;-87
2021/05/22 11:46:35;;;;;;;1.92;1.15;;;;;;;;;;6150745;23;19997;-85
2021/05/22 11:49:31;;;;;;;5.15;1.63;;;;;;;;;;6152141;23;20004;-86
2021/05/22 11:52:26;;;;;;;3.58;1.25;;;;;;;;;;6150247;23;20417;-85
2021/05/22 11:55:20;;;;;;;2.28;1.10;;;;;;;;;;6156332;23;20061;-85
2021/05/22 11:58:11;;;;;;;2.72;1.23;;;;;;;;;;6171580;23;20028;-86
2021/05/22 12:01:16;;;;;;;6.22;2.83;;;;;;;;;;6158090;23;20001;-87
2021/05/22 12:04:05;;;;;;;3.15;1.20;;;;;;;;;;6152950;23;19998;-87
2021/05/22 12:06:52;;;;;;;4.28;1.30;;;;;;;;;;6151027;23;20351;-86
2021/05/22 12:09:38;;;;;;;4.93;1.33;;;;;;;;;;6172088;23;20005;-84
2021/05/22 12:12:30;;;;;;;4.10;1.23;;;;;;;;;;6150292;23;20001;-85
2021/05/22 12:15:25;;;;;;;4.07;1.40;;;;;;;;;;6151125;23;20029;-85
2021/05/22 12:18:14;;;;;;;5.95;1.23;;;;;;;;;;6149521;23;20010;-86
2021/05/22 12:21:00;;;;;;;2.87;1.10;;;;;;;;;;6150895;23;20056;-86
2021/05/22 12:23:48;;;;;;;10.38;5.15;;;;;;;;;;6149246;23;19993;-85
2021/05/22 12:26:35;;;;;;;4.60;1.15;;;;;;;;;;6151220;23;20694;-86
2021/05/22 12:29:22;;;;;;;1.65;1.00;;;;;;;;;;6149394;23;20001;-86
2021/05/22 12:32:12;;;;;;;2.97;1.10;;;;;;;;;;6150434;23;20461;-85
2021/05/22 12:34:58;;;;;;;2.38;1.10;;;;;;;;;;6149380;23;20025;-85
2021/05/22 12:37:50;;;;;;;4.40;1.25;;;;;;;;;;6150099;23;19998;-85
2021/05/22 12:40:49;;;;;;;2.58;0.93;;;;;;;;;;6149206;23;20020;-86
2021/05/22 12:43:48;;;;;;;3.70;1.50;;;;;;;;;;6150553;23;20005;-86
2021/05/22 12:46:38;;;;;;;3.55;1.40;;;;;;;;;;6129302;23;20001;-86
2021/05/22 12:49:30;;;;;;;1.95;1.10;;;;;;;;;;6149086;23;19998;-86
2021/05/22 12:52:16;;;;;;;2.88;1.10;;;;;;;;;;6170892;23;19994;-86
2021/05/22 12:55:01;;;;;;;4.75;1.30;;;;;;;;;;6148706;23;19994;-86
2021/05/22 12:57:47;;;;;;;2.83;0.95;;;;;;;;;;6150520;23;19997;-85
2021/05/22 13:00:32;;;;;;;3.42;1.08;;;;;;;;;;6148540;23;20377;-86
2021/05/22 13:03:33;;;;;;;4.93;1.50;;;;;;;;;;6150110;23;20012;-85
2021/05/22 13:06:28;;;;;;;2.47;1.27;;;;;;;;;;6148806;23;20438;-87
2021/05/22 13:09:14;;;;;;;5.40;3.08;;;;;;;;;;6148873;23;20426;-87
2021/05/22 13:12:01;;;;;;;8.27;4.10;;;;;;;;;;6149268;23;20377;-86
2021/05/22 13:14:47;;;;;;;10.57;6.53;;;;;;;;;;6151035;23;20536;-85
2021/05/22 13:17:53;;;;;;;3.03;2.30;;;;;;;;;;6170899;23;20327;-86
2021/05/22 13:20:39;;;;;;;5.38;2.65;;;;;;;;;;6149178;23;20465;-86
2021/05/22 13:23:26;;;;;;;3.85;2.55;;;;;;;;;;6149819;23;20040;-86
2021/05/22 13:26:25;;;;;;;5.82;3.20;;;;;;;;;;6148730;23;20421;-87
2021/05/22 13:29:13;;;;;;;3.40;1.20;;;;;;;;;;6149608;23;20001;-86
2021/05/22 13:31:58;;;;;;;3.30;1.10;;;;;;;;;;6148281;23;20326;-86
2021/05/22 13:34:43;;;;;;;4.80;1.30;;;;;;;;;;6150160;23;19998;-86
2021/05/22 13:37:28;;;;;;;2.97;0.93;;;;;;;;;;6169599;23;20477;-86
2021/05/22 13:40:14;;;;;;;2.22;1.30;;;;;;;;;;6150969;23;20076;-85
2021/05/22 13:42:59;;;;;;;6.18;1.33;;;;;;;;;;6150788;23;20017;-86
2021/05/22 13:45:46;;;;;;;7.57;1.83;;;;;;;;;;6152267;23;20460;-86
2021/05/22 13:48:32;;;;;;;7.88;1.45;;;;;;;;;;6151064;23;20006;-85
2021/05/22 13:51:17;;;;;;;3.63;1.30;;;;;;;;;;6151097;23;20009;-85
2021/05/22 13:54:04;;;;;;;3.95;1.10;;;;;;;;;;6151714;23;20001;-85
2021/05/22 13:56:49;;;;;;;4.72;1.42;;;;;;;;;;6150730;23;20119;-87
2021/05/22 13:59:34;;;;;;;4.00;1.70;;;;;;;;;;6152038;23;19998;-85
2021/05/22 14:02:19;;;;;;;3.83;2.33;;;;;;;;;;6150533;23;20003;-85
2021/05/22 14:05:05;;;;;;;5.80;1.55;;;;;;;;;;6152160;23;20005;-85
2021/05/22 14:07:50;;;;;;;6.47;1.40;;;;;;;;;;6171214;23;20130;-86
2021/05/22 14:10:35;;;;;;;4.57;1.48;;;;;;;;;;6172658;23;20008;-86
2021/05/22 14:13:21;;;;;;;2.85;1.00;;;;;;;;;;6151015;23;19998;-85
2021/05/22 14:16:06;;;;;;;6.68;1.30;;;;;;;;;;6152891;23;20356;-86
2021/05/22 14:18:51;;;;;;;4.05;1.27;;;;;;;;;;6150905;23;20025;-85
2021/05/22 14:21:36;;;;;;;6.68;2.83;;;;;;;;;;6172457;23;20005;-85
2021/05/22 14:24:22;;;;;;;7.00;4.72;;;;;;;;;;6150904;23;20005;-86
2021/05/22 14:27:07;;;;;;;2.22;0.95;;;;;;;;;;6151728;23;19998;-85
2021/05/22 14:29:52;;;;;;;4.45;1.20;;;;;;;;;;6171565;23;20001;-86
2021/05/22 14:32:38;;;;;;;6.15;1.27;;;;;;;;;;6151916;23;19994;-87
2021/05/22 14:35:23;;;;;;;3.42;0.95;;;;;;;;;;6155224;23;19994;-86
2021/05/22 14:38:08;;;;;;;4.40;1.30;;;;;;;;;;6150405;23;20506;-86
2021/05/22 14:40:53;;;;;;;2.30;1.20;;;;;;;;;;6171916;23;20001;-86
2021/05/22 14:43:57;;;;;;;4.32;1.10;;;;;;;;;;6150776;23;20011;-86
2021/05/22 14:46:42;;;;;;;4.20;1.30;;;;;;;;;;6151579;23;20001;-86
2021/05/22 14:49:32;;;;;;;3.95;2.80;;;;;;;;;;6171221;23;20082;-86
2021/05/22 14:52:17;;;;;;;6.20;2.85;;;;;;;;;;6151409;23;20430;-86
2021/05/22 14:55:06;;;;;;;2.38;1.33;;;;;;;;;;6171707;23;20074;-87
2021/05/22 14:57:51;;;;;;;31.17;21.40;;;;;;;;;;6152010;23;20080;-86
2021/05/22 15:00:42;;;;;;;13.05;7.53;;;;;;;;;;6150656;23;20008;-86
2021/05/22 15:03:27;;;;;;;11.52;6.45;;;;;;;;;;6173305;23;20087;-86
2021/05/22 15:06:13;;;;;;;9.38;6.10;;;;;;;;;;6150068;23;20076;-85
2021/05/22 15:08:58;;;;;;;11.68;5.07;;;;;;;;;;6150521;23;20577;-86
2021/05/22 15:11:44;;;;;;;6.43;2.28;;;;;;;;;;6149053;23;19997;-85
2021/05/22 15:14:32;;;;;;;4.97;1.83;;;;;;;;;;6149804;23;20002;-86
2021/05/22 15:17:17;;;;;;;5.45;2.47;;;;;;;;;;6151094;23;20025;-85
2021/05/22 15:20:03;;;;;;;4.72;2.15;;;;;;;;;;6150599;23;20382;-85
2021/05/22 15:22:48;;;;;;;7.00;1.73;;;;;;;;;;6150822;23;20088;-86
2021/05/22 15:25:35;;;;;;;5.88;1.52;;;;;;;;;;6154461;23;20307;-86
2021/05/22 15:28:20;;;;;;;2.47;1.17;;;;;;;;;;6171321;23;20311;-87
2021/05/22 15:31:10;;;;;;;2.88;1.20;;;;;;;;;;6149390;23;20002;-85
2021/05/22 15:33:56;;;;;;;5.70;1.17;;;;;;;;;;6150513;23;20080;-85
2021/05/22 15:36:41;;;;;;;4.03;1.20;;;;;;;;;;6148929;23;20001;-86
2021/05/22 15:39:26;;;;;;;6.78;2.92;;;;;;;;;;6150748;23;20322;-87
2021/05/22 15:42:12;;;;;;;3.63;1.60;;;;;;;;;;6169678;23;20032;-86
2021/05/22 15:44:59;;;;;;;3.88;0.95;;;;;;;;;;6150424;23;20485;-85
2021/05/22 15:59:54;;;;;;;4.90;1.00;;;;;;;;;;6089301;23;20003;-86
2021/05/22 16:05:47;;;;;;;2.17;0.90;;;;;;;;;;6141388;23;20008;-86
2021/05/22 16:08:32;;;;;;;5.07;2.20;;;;;;;;;;6148774;23;20002;-86
2021/05/22 16:11:18;;;;;;;3.42;1.20;;;;;;;;;;6150877;23;20311;-86
2021/05/22 16:14:03;;;;;;;2.92;1.08;;;;;;;;;;6170599;23;20001;-85
2021/05/22 16:16:49;;;;;;;3.22;1.25;;;;;;;;;;6150651;23;20092;-85
2021/05/22 16:19:34;;;;;;;2.33;1.27;;;;;;;;;;6150967;23;20044;-84
2021/05/22 16:22:20;;;;;;;5.07;1.50;;;;;;;;;;6149355;23;20000;-85
2021/05/22 16:25:05;;;;;;;5.35;1.73;;;;;;;;;;6151187;23;20488;-86
2021/05/22 16:27:51;;;;;;;2.35;0.90;;;;;;;;;;6149362;23;19997;-85
2021/05/22 16:30:36;;;;;;;1.55;0.98;;;;;;;;;;6151177;23;20009;-86
2021/05/22 16:33:24;;;;;;;4.05;1.50;;;;;;;;;;6149965;23;19998;-86
2021/05/22 16:36:09;;;;;;;2.05;0.85;;;;;;;;;;6171730;23;20069;-86
2021/05/22 16:38:54;;;;;;;2.60;1.00;;;;;;;;;;6150612;23;20795;-85
2021/05/22 16:41:40;;;;;;;2.22;1.00;;;;;;;;;;6167636;23;19998;-85
2021/05/22 16:44:25;;;;;;;2.90;1.25;;;;;;;;;;6145797;23;20072;-85
2021/05/22 16:47:11;;;;;;;6.22;2.95;;;;;;;;;;6149780;23;20032;-86
2021/05/22 16:49:56;;;;;;;2.03;1.20;;;;;;;;;;6150849;23;20001;-85
2021/05/22 16:52:41;;;;;;;4.60;1.30;;;;;;;;;;6150879;23;20025;-84
2021/05/22 16:55:27;;;;;;;3.15;1.27;;;;;;;;;;6149636;23;20033;-86
2021/05/22 16:58:12;;;;;;;3.47;1.10;;;;;;;;;;6151224;23;20040;-86
2021/05/22 17:00:57;;;;;;;2.33;1.10;;;;;;;;;;6149515;23;20001;-86
2021/05/22 17:03:43;;;;;;;3.28;1.60;;;;;;;;;;6172004;23;20006;-86
2021/05/22 17:06:28;;;;;;;2.65;2.03;;;;;;;;;;6150356;23;20017;-86
2021/05/22 17:09:13;;;;;;;1.38;1.20;;;;;;;;;;6149832;23;20334;-86
2021/05/22 17:11:59;;;;;;;4.60;2.00;;;;;;;;;;6151463;23;20001;-86
2021/05/22 17:14:44;;;;;;;4.53;2.50;;;;;;;;;;6172291;23;20286;-85
2021/05/22 17:17:29;;;;;;;8.63;7.20;;;;;;;;;;6153122;23;20081;-86
2021/05/22 17:20:15;;;;;;;5.82;2.90;;;;;;;;;;6151356;23;20017;-85
2021/05/22 17:23:00;;;;;;;2.67;1.17;;;;;;;;;;6152738;23;19998;-85
2021/05/22 17:25:46;;;;;;;3.67;1.48;;;;;;;;;;6151250;23;19997;-86
2021/05/22 17:28:31;;;;;;;5.50;1.45;;;;;;;;;;6153405;23;20021;-86
2021/05/22 17:31:17;;;;;;;1.92;0.90;;;;;;;;;;6151204;23;20012;-86
2021/05/22 17:34:02;;;;;;;1.75;1.20;;;;;;;;;;6152712;23;20002;-86
2021/05/22 17:36:47;;;;;;;2.95;1.02;;;;;;;;;;6150574;23;20272;-84
2021/05/22 17:39:33;;;;;;;1.67;1.10;;;;;;;;;;6151825;23;19998;-86
2021/05/22 17:42:18;;;;;;;4.93;1.25;;;;;;;;;;6151289;23;19993;-85
2021/05/22 17:45:05;;;;;;;2.22;0.80;;;;;;;;;;6151723;23;20009;-85
2021/05/22 17:47:50;;;;;;;13.93;2.72;;;;;;;;;;6151256;23;20415;-85
2021/05/22 17:50:36;;;;;;;17.40;7.97;;;;;;;;;;6150648;23;20005;-86